Time;durP1;ratioP1;P1;durP2;ratioP2;P2;SDS_P1;SDS_P2;PMS_P1;PMS_P2;Temp;Humidity;BMP_temperature;BMP_pressure;BME280_temperature;BME280_humidity;BME280_pressure;Samples;Min_cycle;Max_cycle;Signal;HPM_P1;HPM_P2
2021/06/28 00:01:05;;;;;;;7.47;6.03;;;;;;;;;;5122097;27;20538;-70
2021/06/28 00:03:36;;;;;;;6.03;4.67;;;;;;;;;;5118393;27;20466;-69
2021/06/28 00:06:05;;;;;;;7.13;5.43;;;;;;;;;;5119350;27;20454;-71
2021/06/28 00:08:33;;;;;;;6.50;5.03;;;;;;;;;;5118861;27;20557;-70
2021/06/28 00:11:01;;;;;;;8.70;6.50;;;;;;;;;;5119159;27;20889;-72
2021/06/28 00:13:34;;;;;;;7.10;5.67;;;;;;;;;;5118864;27;21039;-71
2021/06/28 00:16:02;;;;;;;7.73;5.67;;;;;;;;;;5118866;27;20858;-70
2021/06/28 00:18:29;;;;;;;6.43;5.83;;;;;;;;;;5118066;27;20459;-70
2021/06/28 00:20:56;;;;;;;6.23;5.63;;;;;;;;;;5117715;27;20446;-70
2021/06/28 00:23:23;;;;;;;7.27;6.53;;;;;;;;;;5117896;27;20953;-70
2021/06/28 00:25:50;;;;;;;7.80;6.10;;;;;;;;;;5117050;27;20466;-70
2021/06/28 00:28:17;;;;;;;6.50;5.90;;;;;;;;;;5118406;27;20851;-70
2021/06/28 00:30:45;;;;;;;8.90;6.07;;;;;;;;;;5118366;27;20454;-70
2021/06/28 00:33:13;;;;;;;7.57;6.30;;;;;;;;;;5117968;27;20481;-70
2021/06/28 00:35:40;;;;;;;9.13;6.97;;;;;;;;;;5118846;27;20465;-68
2021/06/28 00:38:07;;;;;;;9.70;7.07;;;;;;;;;;5118344;27;20658;-70
2021/06/28 00:40:41;;;;;;;9.27;6.97;;;;;;;;;;5119042;27;20886;-70
2021/06/28 00:43:08;;;;;;;8.57;7.10;;;;;;;;;;5117655;27;20446;-71
2021/06/28 00:45:46;;;;;;;10.50;7.00;;;;;;;;;;5118408;27;20450;-70
2021/06/28 00:48:15;;;;;;;9.83;7.33;;;;;;;;;;5118323;27;20442;-70
2021/06/28 00:50:43;;;;;;;7.97;6.70;;;;;;;;;;5117987;27;20793;-70
2021/06/28 00:53:20;;;;;;;8.57;6.60;;;;;;;;;;5117163;27;20526;-70
2021/06/28 00:55:48;;;;;;;7.77;6.97;;;;;;;;;;5117674;27;20446;-70
2021/06/28 00:58:15;;;;;;;7.83;6.80;;;;;;;;;;5117717;27;20462;-70
2021/06/28 01:00:42;;;;;;;8.33;7.53;;;;;;;;;;5117639;27;20459;-70
2021/06/28 01:03:09;;;;;;;11.47;7.43;;;;;;;;;;5117596;27;20926;-69
2021/06/28 01:05:38;;;;;;;8.63;7.73;;;;;;;;;;5116803;27;20515;-70
2021/06/28 01:08:06;;;;;;;8.47;6.53;;;;;;;;;;5116479;27;20459;-70
2021/06/28 01:10:33;;;;;;;8.40;7.30;;;;;;;;;;5116998;27;20454;-70
2021/06/28 01:13:00;;;;;;;9.53;7.40;;;;;;;;;;5116851;27;20438;-70
2021/06/28 01:15:27;;;;;;;9.30;6.30;;;;;;;;;;5117068;27;20549;-70
2021/06/28 01:17:54;;;;;;;12.10;8.23;;;;;;;;;;5117038;27;20455;-70
2021/06/28 01:20:22;;;;;;;9.30;7.23;;;;;;;;;;5118446;27;20504;-70
2021/06/28 01:22:54;;;;;;;10.17;7.70;;;;;;;;;;5117216;27;20502;-70
2021/06/28 01:25:22;;;;;;;7.60;6.80;;;;;;;;;;5117435;27;20545;-70
2021/06/28 01:27:49;;;;;;;8.50;7.43;;;;;;;;;;5117121;27;20451;-70
2021/06/28 01:30:17;;;;;;;10.27;8.03;;;;;;;;;;5117217;27;20502;-70
2021/06/28 01:32:45;;;;;;;9.20;7.60;;;;;;;;;;5117256;27;20482;-70
2021/06/28 01:35:12;;;;;;;8.43;7.53;;;;;;;;;;5118234;27;20508;-70
2021/06/28 01:37:39;;;;;;;9.10;7.00;;;;;;;;;;5117474;27;20583;-70
2021/06/28 01:40:08;;;;;;;9.40;7.43;;;;;;;;;;5116746;27;20551;-70
2021/06/28 01:42:36;;;;;;;9.77;7.57;;;;;;;;;;5116736;27;20447;-71
2021/06/28 01:45:05;;;;;;;9.60;7.23;;;;;;;;;;5117139;27;20850;-70
2021/06/28 01:47:32;;;;;;;11.80;8.33;;;;;;;;;;5116055;27;21018;-70
2021/06/28 01:49:59;;;;;;;8.63;7.13;;;;;;;;;;5116239;27;20736;-71
2021/06/28 01:52:26;;;;;;;12.30;7.70;;;;;;;;;;5116128;27;20446;-70
2021/06/28 01:54:53;;;;;;;8.77;7.13;;;;;;;;;;5116204;27;20855;-70
2021/06/28 01:57:20;;;;;;;9.33;7.73;;;;;;;;;;5116402;27;20450;-70
2021/06/28 01:59:47;;;;;;;8.10;7.03;;;;;;;;;;5116642;27;20497;-70
2021/06/28 02:02:14;;;;;;;9.17;7.00;;;;;;;;;;5116012;27;20855;-70
2021/06/28 02:04:41;;;;;;;9.50;6.67;;;;;;;;;;5116135;27;20549;-70
2021/06/28 02:07:09;;;;;;;9.40;7.10;;;;;;;;;;5115586;27;20447;-70
2021/06/28 02:09:36;;;;;;;9.03;7.43;;;;;;;;;;5116055;27;20521;-71
2021/06/28 02:12:04;;;;;;;11.17;8.17;;;;;;;;;;5116223;27;20538;-70
2021/06/28 02:14:31;;;;;;;9.10;7.80;;;;;;;;;;5116326;27;20787;-70
2021/06/28 02:17:02;;;;;;;10.40;7.90;;;;;;;;;;5116873;27;20742;-70
2021/06/28 02:19:29;;;;;;;9.30;7.70;;;;;;;;;;5116978;27;20950;-70
2021/06/28 02:21:56;;;;;;;10.40;8.00;;;;;;;;;;5118889;27;20781;-70
2021/06/28 02:24:24;;;;;;;10.03;7.70;;;;;;;;;;5119853;27;20553;-69
2021/06/28 02:26:51;;;;;;;10.20;8.50;;;;;;;;;;5120261;27;20515;-69
2021/06/28 02:29:18;;;;;;;11.00;9.10;;;;;;;;;;5119979;27;20462;-70
2021/06/28 02:31:45;;;;;;;15.60;8.30;;;;;;;;;;5119329;27;20447;-69
2021/06/28 02:34:13;;;;;;;8.67;7.33;;;;;;;;;;5119358;27;20541;-70
2021/06/28 02:36:40;;;;;;;10.60;9.07;;;;;;;;;;5119693;27;20541;-70
2021/06/28 02:39:08;;;;;;;9.03;7.47;;;;;;;;;;5120148;27;20486;-70
2021/06/28 02:41:35;;;;;;;9.90;7.63;;;;;;;;;;5118853;27;20439;-70
2021/06/28 02:44:02;;;;;;;12.50;9.20;;;;;;;;;;5118682;27;20497;-70
2021/06/28 02:46:29;;;;;;;12.43;8.13;;;;;;;;;;5118750;27;20461;-71
2021/06/28 02:48:56;;;;;;;14.57;8.80;;;;;;;;;;5118684;27;20936;-71
2021/06/28 02:51:24;;;;;;;10.27;8.83;;;;;;;;;;5119077;27;20525;-69
2021/06/28 02:53:51;;;;;;;9.90;8.20;;;;;;;;;;5119083;27;20587;-71
2021/06/28 02:56:19;;;;;;;10.43;8.53;;;;;;;;;;5119375;27;20454;-71
2021/06/28 02:58:48;;;;;;;10.37;8.53;;;;;;;;;;5118789;27;20490;-70
2021/06/28 03:01:15;;;;;;;11.37;8.80;;;;;;;;;;5118770;27;20920;-71
2021/06/28 03:03:43;;;;;;;10.40;9.10;;;;;;;;;;5118627;27;20447;-71
2021/06/28 03:06:10;;;;;;;11.53;9.60;;;;;;;;;;5119889;27;20454;-70
2021/06/28 03:08:38;;;;;;;10.33;8.57;;;;;;;;;;5119078;27;20439;-71
2021/06/28 03:11:05;;;;;;;10.40;7.97;;;;;;;;;;5118883;27;20882;-70
2021/06/28 03:13:32;;;;;;;10.73;8.30;;;;;;;;;;5119130;27;20522;-70
2021/06/28 03:15:59;;;;;;;9.20;8.23;;;;;;;;;;5118454;27;20829;-71
2021/06/28 03:18:26;;;;;;;13.80;10.07;;;;;;;;;;5118809;27;20443;-70
2021/06/28 03:20:54;;;;;;;10.33;8.67;;;;;;;;;;5119001;27;20530;-71
2021/06/28 03:23:21;;;;;;;10.80;8.33;;;;;;;;;;5119426;27;20450;-69
2021/06/28 03:25:50;;;;;;;12.73;8.67;;;;;;;;;;5118608;27;20526;-70
2021/06/28 03:28:17;;;;;;;11.37;8.17;;;;;;;;;;5119044;27;20531;-70
2021/06/28 03:30:44;;;;;;;11.20;9.70;;;;;;;;;;5120073;27;20867;-70
2021/06/28 03:33:11;;;;;;;11.07;8.70;;;;;;;;;;5119894;27;20855;-70
2021/06/28 03:35:38;;;;;;;11.00;8.77;;;;;;;;;;5119189;27;20521;-71
2021/06/28 03:38:05;;;;;;;11.57;9.57;;;;;;;;;;5118517;27;20546;-71
2021/06/28 03:40:32;;;;;;;10.63;9.53;;;;;;;;;;5121501;27;20482;-70
2021/06/28 03:43:01;;;;;;;11.97;8.57;;;;;;;;;;5139168;27;20445;-70
2021/06/28 03:45:28;;;;;;;14.90;9.10;;;;;;;;;;5138130;27;20450;-70
2021/06/28 03:47:55;;;;;;;9.90;8.47;;;;;;;;;;5130418;27;20894;-71
2021/06/28 03:50:22;;;;;;;13.50;9.63;;;;;;;;;;5132609;27;20461;-70
2021/06/28 03:52:52;;;;;;;11.60;8.90;;;;;;;;;;5121937;27;20836;-70
2021/06/28 03:55:19;;;;;;;12.20;9.70;;;;;;;;;;5118606;27;20462;-70
2021/06/28 03:57:46;;;;;;;9.77;8.10;;;;;;;;;;5118559;27;20965;-69
2021/06/28 04:00:15;;;;;;;11.87;9.60;;;;;;;;;;5119625;27;20488;-70
2021/06/28 04:02:43;;;;;;;14.57;10.33;;;;;;;;;;5117507;27;20482;-70
2021/06/28 04:05:12;;;;;;;12.50;10.30;;;;;;;;;;5118421;27;20455;-70
2021/06/28 04:07:39;;;;;;;11.10;8.97;;;;;;;;;;5118433;27;20462;-70
2021/06/28 04:10:07;;;;;;;12.43;8.90;;;;;;;;;;5118172;27;20885;-70
2021/06/28 04:12:34;;;;;;;13.20;9.90;;;;;;;;;;5118449;27;20541;-70
2021/06/28 04:15:01;;;;;;;15.33;8.53;;;;;;;;;;5118589;27;20457;-71
2021/06/28 04:17:29;;;;;;;11.10;8.80;;;;;;;;;;5118430;27;20484;-70
2021/06/28 04:19:56;;;;;;;10.37;8.50;;;;;;;;;;5118059;27;20478;-70
2021/06/28 04:22:23;;;;;;;9.90;8.90;;;;;;;;;;5134460;27;20607;-71
2021/06/28 04:24:50;;;;;;;12.07;9.53;;;;;;;;;;5121725;27;20894;-70
2021/06/28 04:27:17;;;;;;;12.10;9.77;;;;;;;;;;5138902;27;20607;-71
2021/06/28 04:29:44;;;;;;;11.30;8.67;;;;;;;;;;5138334;27;20481;-71
2021/06/28 04:32:11;;;;;;;12.33;9.23;;;;;;;;;;5138049;27;20465;-70
2021/06/28 04:34:43;;;;;;;10.53;9.03;;;;;;;;;;5138567;27;20544;-70
2021/06/28 04:37:10;;;;;;;9.07;8.07;;;;;;;;;;5138954;27;20711;-70
2021/06/28 04:39:37;;;;;;;11.13;9.50;;;;;;;;;;5138204;27;20489;-70
2021/06/28 04:42:05;;;;;;;10.60;8.90;;;;;;;;;;5137769;27;20465;-70
2021/06/28 04:44:33;;;;;;;11.23;9.03;;;;;;;;;;5137560;27;20540;-70
2021/06/28 04:47:00;;;;;;;11.03;8.67;;;;;;;;;;5138126;27;20487;-69
2021/06/28 04:49:30;;;;;;;13.37;9.93;;;;;;;;;;5131274;27;20469;-70
2021/06/28 04:51:58;;;;;;;11.80;9.10;;;;;;;;;;5119559;27;20454;-70
2021/06/28 04:54:25;;;;;;;9.70;8.20;;;;;;;;;;5117633;27;20464;-70
2021/06/28 04:56:52;;;;;;;11.40;8.53;;;;;;;;;;5116705;27;20810;-70
2021/06/28 04:59:19;;;;;;;10.47;8.67;;;;;;;;;;5116650;27;20490;-70
2021/06/28 05:01:46;;;;;;;14.63;9.30;;;;;;;;;;5116808;27;20757;-71
2021/06/28 05:04:14;;;;;;;10.13;8.10;;;;;;;;;;5116533;27;20449;-70
2021/06/28 05:06:41;;;;;;;9.93;8.43;;;;;;;;;;5131171;27;20885;-70
2021/06/28 05:09:09;;;;;;;11.87;8.60;;;;;;;;;;5135060;27;20830;-70
2021/06/28 05:11:37;;;;;;;13.50;8.60;;;;;;;;;;5136725;27;20489;-70
2021/06/28 05:14:04;;;;;;;20.53;8.70;;;;;;;;;;5136569;27;20458;-71
2021/06/28 05:16:31;;;;;;;12.17;8.37;;;;;;;;;;5135226;27;20776;-72
2021/06/28 05:18:59;;;;;;;9.47;8.47;;;;;;;;;;5135779;27;20742;-70
2021/06/28 05:21:26;;;;;;;17.23;12.43;;;;;;;;;;5132850;27;20596;-70
2021/06/28 05:23:53;;;;;;;11.77;9.23;;;;;;;;;;5133882;27;20483;-70
2021/06/28 05:26:21;;;;;;;11.63;8.40;;;;;;;;;;5134366;27;20454;-70
2021/06/28 05:28:48;;;;;;;14.10;9.10;;;;;;;;;;5130923;27;20450;-71
2021/06/28 05:31:15;;;;;;;11.53;10.27;;;;;;;;;;5134124;27;21384;-70
2021/06/28 05:33:42;;;;;;;10.83;9.37;;;;;;;;;;5131961;27;20968;-70
2021/06/28 05:36:09;;;;;;;11.97;9.63;;;;;;;;;;5124557;27;20501;-69
2021/06/28 05:38:36;;;;;;;14.93;8.50;;;;;;;;;;5130219;27;20924;-71
2021/06/28 05:41:03;;;;;;;14.27;8.10;;;;;;;;;;5114144;27;20516;-70
2021/06/28 05:43:30;;;;;;;11.33;8.80;;;;;;;;;;5130450;27;20585;-71
2021/06/28 05:45:57;;;;;;;11.13;7.93;;;;;;;;;;5129205;27;20932;-70
2021/06/28 05:48:24;;;;;;;9.40;7.70;;;;;;;;;;5134930;27;20503;-71
2021/06/28 05:50:52;;;;;;;8.60;7.00;;;;;;;;;;5134745;27;20442;-70
2021/06/28 05:53:19;;;;;;;8.03;7.17;;;;;;;;;;5133749;27;20450;-70
2021/06/28 05:55:46;;;;;;;10.37;7.07;;;;;;;;;;5135929;27;20510;-70
2021/06/28 05:58:14;;;;;;;9.47;6.77;;;;;;;;;;5137485;27;20581;-71
2021/06/28 06:00:45;;;;;;;7.17;6.47;;;;;;;;;;5136235;27;20485;-71
2021/06/28 06:03:12;;;;;;;8.40;6.93;;;;;;;;;;5137357;27;20466;-71
2021/06/28 06:05:39;;;;;;;9.63;7.70;;;;;;;;;;5140045;27;20442;-71
2021/06/28 06:08:07;;;;;;;9.43;6.67;;;;;;;;;;5138837;27;20613;-71
2021/06/28 06:10:34;;;;;;;7.63;6.50;;;;;;;;;;5138820;27;20526;-69
2021/06/28 06:13:01;;;;;;;7.50;6.70;;;;;;;;;;5134457;27;20453;-70
2021/06/28 06:15:31;;;;;;;7.70;6.90;;;;;;;;;;5139631;27;20896;-70
2021/06/28 06:18:03;;;;;;;9.27;6.13;;;;;;;;;;5138878;27;20453;-71
2021/06/28 06:20:31;;;;;;;9.70;5.63;;;;;;;;;;5133148;27;20491;-69
2021/06/28 06:22:58;;;;;;;6.90;6.17;;;;;;;;;;5137797;27;20450;-70
2021/06/28 06:25:25;;;;;;;7.67;6.20;;;;;;;;;;5136460;27;20526;-69
2021/06/28 06:27:52;;;;;;;7.97;6.00;;;;;;;;;;5137306;27;20711;-70
2021/06/28 06:30:22;;;;;;;12.63;6.50;;;;;;;;;;5138717;27;20449;-70
2021/06/28 06:32:50;;;;;;;6.10;5.27;;;;;;;;;;5137845;27;20474;-70
2021/06/28 06:35:26;;;;;;;7.20;6.00;;;;;;;;;;5136933;27;21067;-70
2021/06/28 06:37:55;;;;;;;7.67;6.43;;;;;;;;;;5131422;27;20961;-69
2021/06/28 06:40:25;;;;;;;9.83;6.40;;;;;;;;;;5136515;27;20537;-69
2021/06/28 06:42:58;;;;;;;6.90;5.57;;;;;;;;;;5108139;28;20458;-70
2021/06/28 06:45:26;;;;;;;7.10;6.00;;;;;;;;;;5139095;27;20508;-71
2021/06/28 06:47:54;;;;;;;8.07;5.87;;;;;;;;;;5119565;27;20523;-69
2021/06/28 06:50:24;;;;;;;6.90;6.10;;;;;;;;;;5119984;27;20494;-70
2021/06/28 06:52:51;;;;;;;9.90;5.43;;;;;;;;;;5137863;27;20530;-71
2021/06/28 06:55:20;;;;;;;6.37;5.63;;;;;;;;;;5138269;27;20473;-70
2021/06/28 06:57:47;;;;;;;7.40;5.10;;;;;;;;;;5137575;27;20956;-70
2021/06/28 07:00:16;;;;;;;7.07;5.50;;;;;;;;;;5138683;27;20478;-71
2021/06/28 07:02:43;;;;;;;6.10;5.00;;;;;;;;;;5133181;27;20453;-71
2021/06/28 07:05:11;;;;;;;6.27;5.67;;;;;;;;;;5134425;27;20530;-70
2021/06/28 07:07:40;;;;;;;5.17;4.67;;;;;;;;;;5138227;27;20453;-70
2021/06/28 07:10:11;;;;;;;5.80;5.20;;;;;;;;;;5147798;27;20876;-70
2021/06/28 07:12:39;;;;;;;6.30;5.10;;;;;;;;;;5151210;27;20457;-72
2021/06/28 07:15:08;;;;;;;5.47;4.80;;;;;;;;;;5137716;27;20449;-71
2021/06/28 07:17:35;;;;;;;6.00;4.70;;;;;;;;;;5132828;27;20454;-72
2021/06/28 07:20:03;;;;;;;5.33;4.70;;;;;;;;;;5137735;27;20497;-72
2021/06/28 07:22:31;;;;;;;5.73;4.60;;;;;;;;;;5138677;27;20515;-71
2021/06/28 07:25:02;;;;;;;5.83;5.10;;;;;;;;;;5124708;27;20529;-70
2021/06/28 07:27:34;;;;;;;7.23;4.80;;;;;;;;;;5137486;27;20436;-71
2021/06/28 07:30:01;;;;;;;6.57;4.90;;;;;;;;;;5115197;27;20463;-72
2021/06/28 07:32:28;;;;;;;5.20;4.70;;;;;;;;;;5117329;27;20878;-71
2021/06/28 07:34:56;;;;;;;4.83;4.20;;;;;;;;;;5121464;27;20563;-73
2021/06/28 07:37:23;;;;;;;6.80;4.90;;;;;;;;;;5125164;27;20446;-73
2021/06/28 07:39:51;;;;;;;5.53;4.33;;;;;;;;;;5136836;27;20904;-72
2021/06/28 07:42:19;;;;;;;4.90;4.40;;;;;;;;;;5137782;27;20541;-73
2021/06/28 07:44:46;;;;;;;5.20;4.60;;;;;;;;;;5137570;27;20540;-72
2021/06/28 07:47:13;;;;;;;6.37;4.50;;;;;;;;;;5140650;27;20483;-72
2021/06/28 07:49:40;;;;;;;6.37;5.30;;;;;;;;;;5136785;27;20485;-72
2021/06/28 07:52:09;;;;;;;6.53;4.77;;;;;;;;;;5135643;27;20555;-72
2021/06/28 07:54:38;;;;;;;6.43;4.70;;;;;;;;;;5137025;27;20780;-72
2021/06/28 07:57:13;;;;;;;8.27;5.23;;;;;;;;;;5141530;27;20446;-71
2021/06/28 07:59:41;;;;;;;5.43;4.50;;;;;;;;;;5137741;27;20776;-72
2021/06/28 08:02:09;;;;;;;6.70;5.13;;;;;;;;;;5136846;27;20462;-71
2021/06/28 08:04:48;;;;;;;5.60;4.30;;;;;;;;;;5136288;27;20590;-71
2021/06/28 08:07:19;;;;;;;5.17;4.20;;;;;;;;;;5135202;27;20442;-72
2021/06/28 08:09:47;;;;;;;5.53;4.30;;;;;;;;;;5135862;27;20706;-71
2021/06/28 08:12:14;;;;;;;6.33;5.10;;;;;;;;;;5138313;27;20438;-72
2021/06/28 08:14:42;;;;;;;5.10;4.60;;;;;;;;;;5123126;27;20519;-72
2021/06/28 08:17:09;;;;;;;5.73;4.93;;;;;;;;;;5115905;27;20465;-72
2021/06/28 08:19:36;;;;;;;5.20;4.33;;;;;;;;;;5116329;27;20998;-73
2021/06/28 08:22:03;;;;;;;7.07;5.50;;;;;;;;;;5152860;27;20531;-73
2021/06/28 08:24:34;;;;;;;5.67;4.17;;;;;;;;;;5156145;27;20449;-73
2021/06/28 08:27:04;;;;;;;6.00;4.50;;;;;;;;;;5138770;27;20461;-73
2021/06/28 08:29:31;;;;;;;5.07;4.57;;;;;;;;;;5137216;27;20518;-72
2021/06/28 08:32:01;;;;;;;5.20;4.53;;;;;;;;;;5135299;27;21255;-73
2021/06/28 08:34:35;;;;;;;4.93;4.43;;;;;;;;;;5120070;27;20477;-73
2021/06/28 08:37:05;;;;;;;8.90;5.53;;;;;;;;;;5129592;27;20451;-73
2021/06/28 08:39:37;;;;;;;7.63;4.73;;;;;;;;;;5119798;27;20974;-73
2021/06/28 08:42:08;;;;;;;6.23;5.63;;;;;;;;;;5140133;27;20552;-72
2021/06/28 08:44:36;;;;;;;5.40;4.17;;;;;;;;;;5137300;27;20458;-72
2021/06/28 08:47:12;;;;;;;5.27;3.93;;;;;;;;;;5120713;27;20454;-72
2021/06/28 08:49:40;;;;;;;5.67;4.80;;;;;;;;;;5126154;27;20441;-72
2021/06/28 08:52:22;;;;;;;4.40;3.77;;;;;;;;;;5125841;27;20459;-71
2021/06/28 08:54:49;;;;;;;4.90;3.73;;;;;;;;;;5129788;27;20537;-71
2021/06/28 08:57:30;;;;;;;4.90;3.47;;;;;;;;;;5126731;27;20807;-73
2021/06/28 08:59:57;;;;;;;3.90;3.50;;;;;;;;;;5128901;27;20477;-71
2021/06/28 09:02:33;;;;;;;5.97;4.40;;;;;;;;;;5126316;27;20451;-72
2021/06/28 09:05:01;;;;;;;4.80;3.77;;;;;;;;;;5129364;27;20540;-73
2021/06/28 09:07:28;;;;;;;5.97;4.07;;;;;;;;;;5135232;27;20557;-72
2021/06/28 09:09:57;;;;;;;8.43;4.10;;;;;;;;;;5131559;27;20458;-73
2021/06/28 09:12:25;;;;;;;5.03;4.10;;;;;;;;;;5134796;27;20461;-72
2021/06/28 09:14:58;;;;;;;4.00;3.60;;;;;;;;;;5135770;27;20442;-73
2021/06/28 09:17:31;;;;;;;6.10;3.20;;;;;;;;;;5133429;27;20484;-72
2021/06/28 09:20:20;;;;;;;6.00;3.27;;;;;;;;;;5133309;27;20909;-71
2021/06/28 09:22:49;;;;;;;6.80;3.83;;;;;;;;;;5137930;27;20449;-70
2021/06/28 09:25:33;;;;;;;3.93;3.40;;;;;;;;;;5124145;27;20543;-72
2021/06/28 09:28:07;;;;;;;4.57;3.90;;;;;;;;;;5115985;27;20458;-71
2021/06/28 09:30:39;;;;;;;4.43;3.50;;;;;;;;;;5126752;27;20461;-70
2021/06/28 09:33:38;;;;;;;4.63;3.40;;;;;;;;;;5139653;27;20461;-72
2021/06/28 09:36:19;;;;;;;4.93;3.30;;;;;;;;;;5134830;27;20464;-72
2021/06/28 09:38:49;;;;;;;4.00;3.43;;;;;;;;;;5131045;27;20565;-73
2021/06/28 09:41:25;;;;;;;4.90;3.30;;;;;;;;;;5074569;28;20579;-70
2021/06/28 09:44:09;;;;;;;6.57;4.03;;;;;;;;;;5090883;28;20455;-71
2021/06/28 09:46:54;;;;;;;4.90;2.73;;;;;;;;;;5091953;28;20471;-72
2021/06/28 09:49:52;;;;;;;3.70;2.73;;;;;;;;;;5094099;28;20459;-71
2021/06/28 09:52:39;;;;;;;3.80;3.30;;;;;;;;;;5075272;28;20464;-72
2021/06/28 09:55:23;;;;;;;4.20;3.10;;;;;;;;;;5089108;28;20452;-72
2021/06/28 09:58:06;;;;;;;3.80;3.17;;;;;;;;;;5095159;28;20451;-73
2021/06/28 10:00:34;;;;;;;3.77;2.70;;;;;;;;;;5094534;28;20520;-73
2021/06/28 10:03:06;;;;;;;3.80;3.17;;;;;;;;;;5094987;28;20447;-71
2021/06/28 10:05:53;;;;;;;5.57;2.77;;;;;;;;;;5089228;28;20499;-73
2021/06/28 10:08:23;;;;;;;4.10;2.60;;;;;;;;;;5091922;28;20725;-73
2021/06/28 10:11:14;;;;;;;3.37;2.50;;;;;;;;;;5075876;28;20464;-72
2021/06/28 10:13:45;;;;;;;3.20;2.77;;;;;;;;;;5078041;28;20556;-72
2021/06/28 10:16:19;;;;;;;3.23;2.73;;;;;;;;;;5061414;28;20920;-72
2021/06/28 10:18:53;;;;;;;3.57;2.60;;;;;;;;;;5095421;28;20452;-73
2021/06/28 10:21:42;;;;;;;3.60;2.83;;;;;;;;;;5097174;28;20911;-73
2021/06/28 10:24:13;;;;;;;4.27;2.77;;;;;;;;;;5094020;28;20554;-72
2021/06/28 10:27:02;;;;;;;5.87;2.87;;;;;;;;;;5093119;28;20512;-73
2021/06/28 10:29:48;;;;;;;6.00;3.23;;;;;;;;;;5080263;28;20463;-72
2021/06/28 10:32:18;;;;;;;4.50;2.30;;;;;;;;;;5082328;28;20459;-71
2021/06/28 10:34:51;;;;;;;11.33;4.43;;;;;;;;;;5070409;28;20527;-72
2021/06/28 10:37:32;;;;;;;6.87;4.30;;;;;;;;;;5079469;28;20484;-72
2021/06/28 10:40:01;;;;;;;5.63;3.10;;;;;;;;;;5075979;28;20491;-72
2021/06/28 10:42:31;;;;;;;4.73;3.00;;;;;;;;;;5076655;28;20617;-72
2021/06/28 10:44:59;;;;;;;3.93;2.67;;;;;;;;;;5091169;28;20455;-73
2021/06/28 10:47:28;;;;;;;6.07;4.00;;;;;;;;;;5097050;28;20447;-73
2021/06/28 10:49:59;;;;;;;4.87;3.70;;;;;;;;;;5097061;28;20450;-73
2021/06/28 10:52:49;;;;;;;6.20;4.27;;;;;;;;;;5094566;28;20443;-72
2021/06/28 10:55:44;;;;;;;10.57;6.97;;;;;;;;;;5099844;28;20462;-72
2021/06/28 11:01:39;;;;;;;4.30;3.70;;;;;;;;;;4552418;28;15384522;-72
2021/06/28 11:04:07;;;;;;;4.90;3.03;;;;;;;;;;5097684;28;20496;-71
2021/06/28 11:06:36;;;;;;;4.70;3.40;;;;;;;;;;5079211;28;20506;-72
2021/06/28 11:09:07;;;;;;;4.00;2.60;;;;;;;;;;5089985;28;20940;-72
2021/06/28 11:11:56;;;;;;;5.57;3.93;;;;;;;;;;5083388;28;20445;-73
2021/06/28 11:14:50;;;;;;;3.23;2.53;;;;;;;;;;5086181;28;20473;-72
2021/06/28 11:17:26;;;;;;;3.83;2.40;;;;;;;;;;5078824;28;20452;-72
2021/06/28 11:19:58;;;;;;;3.20;2.07;;;;;;;;;;5078217;28;21119;-72
2021/06/28 11:22:44;;;;;;;2.93;2.20;;;;;;;;;;5077590;28;20444;-72
2021/06/28 11:25:30;;;;;;;5.33;2.87;;;;;;;;;;5082251;28;20487;-73
2021/06/28 11:28:15;;;;;;;3.90;2.70;;;;;;;;;;5095394;28;20812;-72
2021/06/28 11:31:13;;;;;;;3.23;2.67;;;;;;;;;;5080005;28;20451;-72
2021/06/28 11:33:44;;;;;;;3.10;2.60;;;;;;;;;;5062789;28;20547;-73
2021/06/28 11:36:32;;;;;;;5.03;2.80;;;;;;;;;;5080772;28;20448;-72
2021/06/28 11:39:02;;;;;;;5.00;2.87;;;;;;;;;;5080246;28;20569;-73
2021/06/28 11:41:31;;;;;;;5.40;4.57;;;;;;;;;;5085295;28;20508;-72
2021/06/28 11:43:59;;;;;;;4.43;3.33;;;;;;;;;;5093106;28;20554;-73
2021/06/28 11:46:30;;;;;;;3.87;3.47;;;;;;;;;;5088875;28;20460;-70
2021/06/28 11:49:02;;;;;;;4.60;2.97;;;;;;;;;;5096187;28;20459;-72
2021/06/28 11:51:35;;;;;;;5.83;4.50;;;;;;;;;;5096670;28;20463;-71
2021/06/28 11:54:14;;;;;;;3.83;3.20;;;;;;;;;;5080990;28;20460;-71
2021/06/28 11:56:45;;;;;;;3.60;2.77;;;;;;;;;;5085342;28;20457;-72
2021/06/28 11:59:13;;;;;;;4.37;2.70;;;;;;;;;;5075719;28;20750;-72
2021/06/28 12:01:42;;;;;;;3.43;2.83;;;;;;;;;;5074184;28;20488;-72
2021/06/28 12:04:19;;;;;;;4.83;3.37;;;;;;;;;;5075652;28;20873;-72
2021/06/28 12:06:49;;;;;;;3.30;2.70;;;;;;;;;;5093179;28;20447;-73
2021/06/28 12:09:28;;;;;;;5.40;3.27;;;;;;;;;;5080582;28;20483;-71
2021/06/28 12:11:57;;;;;;;3.67;2.60;;;;;;;;;;5087837;28;20860;-72
2021/06/28 12:14:35;;;;;;;4.57;2.90;;;;;;;;;;5080227;28;20529;-70
2021/06/28 12:17:09;;;;;;;3.70;2.50;;;;;;;;;;5074514;28;20632;-70
2021/06/28 12:19:39;;;;;;;3.90;2.80;;;;;;;;;;5075459;28;20451;-73
2021/06/28 12:22:11;;;;;;;4.57;3.10;;;;;;;;;;5074891;28;20860;-73
2021/06/28 12:24:39;;;;;;;4.40;3.77;;;;;;;;;;5075687;28;20474;-72
2021/06/28 12:27:08;;;;;;;4.53;3.07;;;;;;;;;;5075708;28;20453;-71
2021/06/28 12:29:37;;;;;;;4.47;3.43;;;;;;;;;;5074577;28;20560;-73
2021/06/28 12:32:23;;;;;;;5.13;3.73;;;;;;;;;;5075886;28;20937;-69
2021/06/28 12:34:59;;;;;;;4.30;3.53;;;;;;;;;;5076048;28;20487;-70
2021/06/28 12:37:30;;;;;;;4.93;3.33;;;;;;;;;;5075737;28;20493;-71
2021/06/28 12:40:18;;;;;;;5.80;3.70;;;;;;;;;;5079682;28;20463;-70
2021/06/28 12:42:47;;;;;;;4.60;3.70;;;;;;;;;;5074696;28;20452;-71
2021/06/28 12:45:16;;;;;;;3.90;3.43;;;;;;;;;;5076299;28;20748;-71
2021/06/28 12:47:45;;;;;;;5.97;4.73;;;;;;;;;;5079118;28;20498;-71
2021/06/28 12:50:19;;;;;;;6.73;4.40;;;;;;;;;;5095191;28;20439;-72
2021/06/28 12:52:47;;;;;;;4.20;3.80;;;;;;;;;;5095478;28;20454;-71
2021/06/28 12:55:26;;;;;;;6.40;4.53;;;;;;;;;;5096222;28;20467;-73
2021/06/28 12:58:04;;;;;;;6.33;4.40;;;;;;;;;;5075410;28;20884;-71
2021/06/28 13:00:35;;;;;;;5.53;4.20;;;;;;;;;;5076354;28;20480;-71
2021/06/28 13:03:10;;;;;;;3.30;2.97;;;;;;;;;;5070839;28;20452;-72
2021/06/28 13:05:47;;;;;;;5.40;4.17;;;;;;;;;;5093294;28;20454;-72
2021/06/28 13:08:17;;;;;;;4.77;4.27;;;;;;;;;;5074629;28;20487;-71
2021/06/28 13:11:03;;;;;;;6.10;3.67;;;;;;;;;;5090319;28;20517;-74
2021/06/28 13:13:38;;;;;;;6.10;5.17;;;;;;;;;;5077404;28;20457;-74
2021/06/28 13:16:24;;;;;;;4.47;3.27;;;;;;;;;;5074936;28;20440;-73
2021/06/28 13:18:55;;;;;;;4.40;3.77;;;;;;;;;;5083188;28;20443;-72
2021/06/28 13:21:25;;;;;;;7.37;3.20;;;;;;;;;;5096883;28;20484;-69
2021/06/28 13:23:57;;;;;;;8.70;7.43;;;;;;;;;;5096719;28;20451;-72
2021/06/28 13:26:29;;;;;;;4.60;4.07;;;;;;;;;;5096806;28;20451;-69
2021/06/28 13:29:00;;;;;;;5.40;4.90;;;;;;;;;;5090265;28;20456;-71
2021/06/28 13:31:29;;;;;;;6.50;4.50;;;;;;;;;;5074956;28;20500;-70
2021/06/28 13:34:04;;;;;;;4.40;3.60;;;;;;;;;;5077446;28;20460;-69
2021/06/28 13:36:34;;;;;;;7.10;4.17;;;;;;;;;;5076515;28;20512;-71
2021/06/28 13:39:05;;;;;;;4.40;3.10;;;;;;;;;;5084993;28;20799;-71
2021/06/28 13:41:48;;;;;;;5.00;3.40;;;;;;;;;;5091562;28;20487;-69
2021/06/28 13:44:16;;;;;;;5.40;4.90;;;;;;;;;;5063448;28;20498;-70
2021/06/28 13:46:44;;;;;;;4.77;4.23;;;;;;;;;;5087948;28;20451;-70
2021/06/28 13:49:24;;;;;;;5.33;4.70;;;;;;;;;;5085524;28;20478;-71
2021/06/28 13:52:09;;;;;;;4.37;3.97;;;;;;;;;;5081488;28;20570;-70
2021/06/28 13:54:37;;;;;;;4.33;3.50;;;;;;;;;;5083957;28;20480;-70
2021/06/28 13:57:06;;;;;;;6.50;4.50;;;;;;;;;;5078294;28;20448;-69
2021/06/28 13:59:37;;;;;;;3.87;3.53;;;;;;;;;;5088503;28;20462;-70
2021/06/28 14:02:06;;;;;;;4.80;3.83;;;;;;;;;;5073793;28;20896;-70
2021/06/28 14:04:43;;;;;;;4.20;3.60;;;;;;;;;;5075144;28;20457;-70
2021/06/28 14:07:12;;;;;;;10.13;4.43;;;;;;;;;;5088987;28;20451;-71
2021/06/28 14:09:40;;;;;;;4.40;3.57;;;;;;;;;;5094422;28;20451;-70
2021/06/28 14:12:09;;;;;;;3.67;3.23;;;;;;;;;;5083063;28;20457;-70
2021/06/28 14:14:38;;;;;;;4.77;4.03;;;;;;;;;;5086446;28;20440;-70
2021/06/28 14:17:19;;;;;;;5.00;3.93;;;;;;;;;;5079141;28;20514;-70
2021/06/28 14:19:52;;;;;;;4.80;4.30;;;;;;;;;;5097980;28;20446;-71
2021/06/28 14:22:24;;;;;;;5.03;3.70;;;;;;;;;;5081977;28;20484;-72
2021/06/28 14:24:53;;;;;;;4.80;4.37;;;;;;;;;;5080275;28;20547;-72
2021/06/28 14:27:21;;;;;;;5.20;4.70;;;;;;;;;;5091527;28;20455;-71
2021/06/28 14:29:49;;;;;;;5.40;4.47;;;;;;;;;;5089475;28;20453;-71
2021/06/28 14:32:17;;;;;;;5.63;4.43;;;;;;;;;;5079426;28;20452;-71
2021/06/28 14:34:46;;;;;;;5.37;4.47;;;;;;;;;;5090272;28;20533;-71
2021/06/28 14:37:36;;;;;;;4.93;4.53;;;;;;;;;;5082659;28;20450;-73
2021/06/28 14:40:07;;;;;;;5.60;4.23;;;;;;;;;;5081088;28;20462;-72
2021/06/28 14:42:36;;;;;;;5.90;5.00;;;;;;;;;;5065643;28;20820;-72
2021/06/28 14:45:26;;;;;;;4.30;3.90;;;;;;;;;;5091844;28;20444;-73
2021/06/28 14:47:55;;;;;;;5.20;4.70;;;;;;;;;;5080889;28;20992;-72
2021/06/28 14:50:23;;;;;;;5.00;4.50;;;;;;;;;;5083600;28;20475;-71
2021/06/28 14:52:51;;;;;;;5.13;4.33;;;;;;;;;;5079063;28;20517;-70
2021/06/28 14:55:27;;;;;;;5.17;4.03;;;;;;;;;;5077529;28;20876;-71
2021/06/28 14:57:55;;;;;;;7.23;5.03;;;;;;;;;;5081231;28;20934;-72
2021/06/28 15:00:26;;;;;;;5.90;5.20;;;;;;;;;;5091816;28;20871;-71
2021/06/28 15:03:01;;;;;;;5.90;4.50;;;;;;;;;;5080858;28;20448;-71
2021/06/28 15:05:29;;;;;;;5.00;4.50;;;;;;;;;;5085951;28;20736;-71